createdAt,value
2018-12-22T00:00:30.474Z,83.01
2018-12-22T00:02:59.772Z,82.52
2018-12-22T00:05:29.034Z,82.76
2018-12-22T00:07:58.659Z,83.32
2018-12-22T00:10:27.987Z,83.62
2018-12-22T00:12:57.245Z,83.09
2018-12-22T00:15:26.561Z,83.26
2018-12-22T00:17:55.921Z,82.87
2018-12-22T00:20:25.147Z,83.31
2018-12-22T00:22:54.436Z,83.18
2018-12-22T00:25:23.692Z,83.07
2018-12-22T00:27:52.976Z,83.41
2018-12-22T00:30:22.299Z,83.00
2018-12-22T00:32:51.585Z,83.11
2018-12-22T00:35:20.902Z,82.81
2018-12-22T00:37:50.187Z,82.27
2018-12-22T00:40:19.519Z,82.37
2018-12-22T00:42:48.879Z,81.83
2018-12-22T00:45:18.225Z,81.79
2018-12-22T00:47:47.456Z,81.89
2018-12-22T00:50:16.796Z,81.47
2018-12-22T00:52:46.102Z,81.21
2018-12-22T00:55:15.388Z,81.07
2018-12-22T00:57:44.713Z,81.31
2018-12-22T01:00:14.005Z,80.84
2018-12-22T01:02:43.253Z,80.77
2018-12-22T01:05:12.504Z,80.87
2018-12-22T01:07:41.871Z,81.04
2018-12-22T01:10:11.126Z,81.04
2018-12-22T01:12:40.400Z,81.16
2018-12-22T01:15:09.696Z,81.37
2018-12-22T01:17:38.964Z,81.10
2018-12-22T01:20:09.032Z,81.31
2018-12-22T01:22:38.355Z,81.27
2018-12-22T01:25:07.580Z,81.12
2018-12-22T01:27:36.946Z,80.90
2018-12-22T01:30:07.158Z,81.02
2018-12-22T01:32:36.486Z,80.87
2018-12-22T01:35:05.844Z,80.91
2018-12-22T01:37:35.180Z,81.04
2018-12-22T01:40:04.850Z,81.11
2018-12-22T01:42:34.194Z,80.50
2018-12-22T01:45:03.468Z,80.64
2018-12-22T01:47:32.780Z,80.33
2018-12-22T01:50:02.026Z,80.72
2018-12-22T01:52:31.296Z,80.61
2018-12-22T01:55:00.558Z,80.79
2018-12-22T01:57:29.831Z,80.26
2018-12-22T01:59:59.066Z,80.31
2018-12-22T02:02:28.358Z,80.48
2018-12-22T02:04:57.696Z,80.70
2018-12-22T02:07:26.947Z,81.08
2018-12-22T02:09:56.303Z,81.75
2018-12-22T02:12:25.676Z,82.10
2018-12-22T02:14:54.830Z,82.37
2018-12-22T02:17:24.258Z,82.79
2018-12-22T02:19:53.540Z,83.05
2018-12-22T02:22:22.882Z,83.02
2018-12-22T02:24:52.180Z,83.04
2018-12-22T02:27:21.467Z,82.99
2018-12-22T02:29:50.783Z,83.01
2018-12-22T02:32:20.184Z,82.78
2018-12-22T02:34:49.521Z,83.01
2018-12-22T02:37:18.782Z,82.49
2018-12-22T02:39:48.040Z,82.34
2018-12-22T02:42:17.302Z,82.40
2018-12-22T02:44:46.719Z,82.42
2018-12-22T02:47:15.981Z,82.27
2018-12-22T02:49:45.271Z,82.19
2018-12-22T02:52:14.594Z,82.44
2018-12-22T02:54:43.889Z,82.51
2018-12-22T02:57:13.142Z,82.58
2018-12-22T02:59:42.364Z,81.98
2018-12-22T03:02:11.712Z,82.39
2018-12-22T03:04:41.101Z,82.40
2018-12-22T03:07:10.429Z,82.51
2018-12-22T03:09:39.706Z,82.71
2018-12-22T03:12:09.023Z,83.05
2018-12-22T03:14:38.298Z,83.32
2018-12-22T03:17:07.575Z,83.66
2018-12-22T03:19:36.895Z,83.67
2018-12-22T03:22:06.173Z,83.97
2018-12-22T03:24:35.427Z,84.17
2018-12-22T03:27:04.728Z,84.39
2018-12-22T03:29:33.983Z,84.59
2018-12-22T03:32:03.341Z,84.78
2018-12-22T03:34:32.591Z,84.89
2018-12-22T03:37:01.922Z,85.53
2018-12-22T03:39:31.185Z,85.83
2018-12-22T03:42:00.536Z,86.03
2018-12-22T03:44:29.807Z,85.97
2018-12-22T03:46:59.244Z,85.88
2018-12-22T03:49:28.460Z,85.74
2018-12-22T03:51:57.851Z,85.76
2018-12-22T03:54:27.226Z,85.46
2018-12-22T03:56:56.480Z,85.55
2018-12-22T03:59:25.847Z,85.72
2018-12-22T04:01:55.137Z,85.30
2018-12-22T04:04:24.381Z,84.96
2018-12-22T04:06:53.673Z,84.85
2018-12-22T04:09:22.920Z,85.09
2018-12-22T04:11:52.246Z,85.07
2018-12-22T04:14:21.517Z,85.29
2018-12-22T04:16:50.818Z,85.52
2018-12-22T04:19:20.058Z,85.57
2018-12-22T04:21:49.372Z,85.67
2018-12-22T04:24:18.699Z,85.95
2018-12-22T04:26:48.039Z,86.00
2018-12-22T04:29:17.309Z,86.05
2018-12-22T04:31:46.645Z,86.06
2018-12-22T04:34:15.913Z,86.13
2018-12-22T04:36:45.156Z,86.45
2018-12-22T04:39:14.432Z,86.75
2018-12-22T04:41:43.688Z,86.84
2018-12-22T04:44:13.067Z,86.90
2018-12-22T04:46:42.317Z,86.95
2018-12-22T04:49:11.609Z,87.12
2018-12-22T04:51:40.977Z,87.57
2018-12-22T04:54:10.427Z,87.82
2018-12-22T04:56:39.745Z,88.05
2018-12-22T04:59:09.015Z,87.94
2018-12-22T05:01:38.453Z,88.20
2018-12-22T05:04:07.725Z,88.37
2018-12-22T05:06:36.951Z,88.37
2018-12-22T05:09:07.299Z,88.44
2018-12-22T05:11:36.575Z,88.54
2018-12-22T05:14:05.855Z,88.61
2018-12-22T05:16:35.154Z,88.83
2018-12-22T05:19:04.419Z,89.14
2018-12-22T05:21:36.249Z,89.36
2018-12-22T05:24:05.455Z,89.35
2018-12-22T05:26:34.710Z,89.43
2018-12-22T05:29:04.054Z,89.61
2018-12-22T05:31:33.330Z,89.64
2018-12-22T05:34:02.582Z,89.68
2018-12-22T05:36:31.961Z,89.68
2018-12-22T05:39:01.161Z,89.72
2018-12-22T05:41:30.470Z,89.70
2018-12-22T05:43:59.812Z,89.92
2018-12-22T05:46:29.108Z,89.89
2018-12-22T05:48:58.404Z,89.77
2018-12-22T05:51:27.743Z,89.92
2018-12-22T05:53:57.093Z,89.80
2018-12-22T05:56:26.345Z,89.74
2018-12-22T05:58:55.640Z,89.94
2018-12-22T06:01:24.988Z,89.88
2018-12-22T06:03:54.294Z,90.02
2018-12-22T06:06:23.569Z,90.22
2018-12-22T06:08:52.889Z,90.28
2018-12-22T06:11:22.178Z,90.53
2018-12-22T06:13:51.402Z,90.45
2018-12-22T06:16:20.795Z,90.53
2018-12-22T06:18:50.171Z,90.57
2018-12-22T06:21:19.596Z,90.51
2018-12-22T06:23:48.857Z,90.50
2018-12-22T06:26:18.141Z,90.69
2018-12-22T06:28:47.403Z,90.53
2018-12-22T06:31:16.716Z,90.83
2018-12-22T06:33:46.001Z,90.79
2018-12-22T06:36:15.266Z,90.86
2018-12-22T06:38:46.825Z,91.16
2018-12-22T06:41:16.128Z,91.02
2018-12-22T06:43:45.416Z,91.09
2018-12-22T06:46:14.703Z,91.47
2018-12-22T06:48:44.026Z,91.47
2018-12-22T06:51:13.369Z,91.71
2018-12-22T06:53:42.664Z,91.85
2018-12-22T06:56:11.979Z,91.89
2018-12-22T06:58:41.261Z,91.74
2018-12-22T07:01:10.527Z,91.82
2018-12-22T07:03:39.824Z,91.82
2018-12-22T07:06:09.236Z,91.80
2018-12-22T07:08:38.436Z,91.99
2018-12-22T07:11:07.731Z,91.83
2018-12-22T07:13:37.046Z,91.85
2018-12-22T07:16:07.495Z,91.87
2018-12-22T07:18:35.625Z,91.91
2018-12-22T07:21:04.917Z,92.05
2018-12-22T07:23:34.214Z,92.12
2018-12-22T07:26:03.504Z,92.09
2018-12-22T07:28:32.843Z,92.18
2018-12-22T07:31:02.169Z,92.33
2018-12-22T07:33:31.481Z,92.37
2018-12-22T07:36:00.755Z,92.49
2018-12-22T07:38:30.032Z,92.54
2018-12-22T07:40:59.350Z,92.57
2018-12-22T07:43:28.782Z,92.45
2018-12-22T07:45:58.032Z,92.59
2018-12-22T07:48:27.376Z,92.46
2018-12-22T07:50:56.664Z,92.29
2018-12-22T07:53:25.993Z,92.41
2018-12-22T07:55:55.261Z,92.28
2018-12-22T07:58:24.581Z,92.26
2018-12-22T08:00:53.837Z,92.33
2018-12-22T08:03:23.157Z,92.28
2018-12-22T08:05:52.452Z,92.41
2018-12-22T08:08:23.681Z,92.62
2018-12-22T08:10:51.086Z,92.74
2018-12-22T08:13:20.393Z,92.80
2018-12-22T08:15:49.702Z,92.90
2018-12-22T08:18:18.926Z,93.07
2018-12-22T08:20:48.225Z,93.21
2018-12-22T08:23:17.494Z,93.28
2018-12-22T08:25:46.977Z,92.65
2018-12-22T08:28:16.327Z,92.79
2018-12-22T08:30:48.745Z,91.72
2018-12-22T08:33:15.029Z,92.89
2018-12-22T08:35:47.001Z,92.90
2018-12-22T08:38:13.594Z,92.29
2018-12-22T08:40:43.304Z,92.01
2018-12-22T08:43:12.659Z,91.64
2018-12-22T08:45:42.281Z,92.85
2018-12-22T08:48:11.611Z,92.64
2018-12-22T08:50:44.633Z,92.59
2018-12-22T08:53:13.968Z,92.15
2018-12-22T08:55:45.983Z,92.31
2018-12-22T08:58:15.542Z,92.60
2018-12-22T09:00:52.073Z,92.96
2018-12-22T09:03:14.191Z,92.66
2018-12-22T09:05:43.464Z,92.30
2018-12-22T09:08:12.795Z,92.33
2018-12-22T09:10:42.038Z,92.49
2018-12-22T09:13:11.366Z,92.73
2018-12-22T09:15:40.666Z,92.60
2018-12-22T09:18:09.954Z,92.90
2018-12-22T09:20:39.290Z,93.12
2018-12-22T09:23:08.558Z,93.14
2018-12-22T09:25:37.854Z,92.89
2018-12-22T09:28:07.154Z,92.91
2018-12-22T09:30:36.428Z,92.91
2018-12-22T09:33:05.780Z,92.79
2018-12-22T09:35:35.083Z,92.78
2018-12-22T09:38:04.416Z,93.06
2018-12-22T09:40:33.788Z,92.87
2018-12-22T09:43:03.072Z,92.91
2018-12-22T09:45:32.430Z,92.95
2018-12-22T09:48:01.788Z,93.05
2018-12-22T09:50:31.209Z,93.08
2018-12-22T09:53:00.414Z,93.21
2018-12-22T09:55:29.578Z,92.97
2018-12-22T09:57:58.880Z,93.07
2018-12-22T10:00:28.206Z,93.07
2018-12-22T10:02:57.461Z,93.00
2018-12-22T10:05:26.824Z,93.02
2018-12-22T10:07:56.188Z,93.06
2018-12-22T10:10:25.491Z,92.96
2018-12-22T10:12:54.757Z,93.18
2018-12-22T10:15:24.078Z,93.23
2018-12-22T10:17:53.362Z,93.29
2018-12-22T10:20:22.709Z,93.41
2018-12-22T10:22:51.980Z,93.23
2018-12-22T10:25:21.252Z,93.27
2018-12-22T10:27:50.523Z,93.38
2018-12-22T10:30:19.815Z,93.40
2018-12-22T10:32:49.116Z,93.10
2018-12-22T10:35:29.023Z,92.86
2018-12-22T10:37:58.223Z,92.76
2018-12-22T10:40:27.449Z,92.90
2018-12-22T10:42:56.727Z,91.97
2018-12-22T10:45:26.054Z,92.39
2018-12-22T10:47:55.309Z,92.55
2018-12-22T10:50:24.558Z,92.11
2018-12-22T10:52:53.847Z,92.52
2018-12-22T10:55:23.269Z,92.40
2018-12-22T10:57:52.568Z,92.34
2018-12-22T11:00:21.847Z,91.98
2018-12-22T11:02:51.183Z,91.86
2018-12-22T11:05:20.459Z,91.39
2018-12-22T11:07:49.721Z,91.24
2018-12-22T11:10:26.547Z,91.61
2018-12-22T11:13:00.667Z,91.71
2018-12-22T11:15:29.907Z,91.92
2018-12-22T11:17:59.396Z,91.06
2018-12-22T11:20:28.624Z,91.03
2018-12-22T11:22:57.893Z,91.70
2018-12-22T11:25:27.490Z,91.74
2018-12-22T11:27:56.765Z,91.91
2018-12-22T11:30:40.624Z,91.40
2018-12-22T11:33:09.875Z,91.22
2018-12-22T11:35:39.121Z,91.04
2018-12-22T11:38:08.431Z,91.21
2018-12-22T11:40:37.641Z,91.49
2018-12-22T11:43:06.957Z,91.17
2018-12-22T11:45:36.187Z,91.10
2018-12-22T11:48:56.218Z,90.93
2018-12-22T11:51:25.493Z,91.18
2018-12-22T11:53:54.773Z,91.10
2018-12-22T11:56:24.056Z,90.87
2018-12-22T11:58:53.370Z,90.72
2018-12-22T12:01:22.640Z,90.71
2018-12-22T12:03:51.899Z,91.00
2018-12-22T12:06:21.197Z,90.75
2018-12-22T12:08:50.486Z,90.51
2018-12-22T12:11:19.805Z,90.96
2018-12-22T12:13:49.156Z,90.85
2018-12-22T12:16:28.076Z,90.37
2018-12-22T12:19:26.173Z,90.91
2018-12-22T12:21:55.491Z,90.71
2018-12-22T12:24:25.213Z,90.62
2018-12-22T12:26:54.543Z,90.98
2018-12-22T12:29:23.794Z,91.15
2018-12-22T12:31:53.059Z,90.72
2018-12-22T12:34:22.326Z,90.82
2018-12-22T12:36:52.149Z,91.04
2018-12-22T12:39:21.446Z,91.55
2018-12-22T12:41:50.724Z,91.48
2018-12-22T12:44:20.056Z,90.67
2018-12-22T12:46:50.979Z,90.53
2018-12-22T12:49:21.054Z,90.76
2018-12-22T12:51:50.424Z,91.01
2018-12-22T12:54:21.138Z,91.17
2018-12-22T12:56:55.976Z,91.03
2018-12-22T12:59:26.299Z,91.33
2018-12-22T13:02:00.937Z,91.22
2018-12-22T13:04:25.023Z,91.54
2018-12-22T13:06:54.386Z,91.56
2018-12-22T13:09:23.725Z,91.51
2018-12-22T13:11:54.360Z,91.84
2018-12-22T13:14:24.785Z,92.01
2018-12-22T13:16:54.085Z,92.22
2018-12-22T13:19:23.382Z,92.52
2018-12-22T13:21:54.097Z,92.38
2018-12-22T13:24:23.398Z,92.38
2018-12-22T13:26:52.686Z,93.05
2018-12-22T13:29:21.975Z,93.91
2018-12-22T13:31:51.305Z,93.47
2018-12-22T13:34:20.623Z,92.74
2018-12-22T13:36:49.871Z,93.19
2018-12-22T13:39:29.794Z,93.02
2018-12-22T13:41:59.115Z,93.05
2018-12-22T13:44:28.373Z,92.84
2018-12-22T13:46:57.654Z,92.46
2018-12-22T13:49:27.205Z,92.46
2018-12-22T13:51:56.361Z,92.71
2018-12-22T13:54:26.388Z,92.61
2018-12-22T13:56:55.695Z,92.99
2018-12-22T13:59:25.021Z,93.30
2018-12-22T14:02:00.554Z,93.25
2018-12-22T14:04:31.356Z,93.44
2018-12-22T14:07:00.646Z,93.53
2018-12-22T14:09:29.930Z,93.45
2018-12-22T14:11:59.219Z,93.59
2018-12-22T14:14:37.599Z,93.67
2018-12-22T14:17:19.002Z,93.81
2018-12-22T14:20:15.021Z,94.16
2018-12-22T14:22:45.237Z,94.17
2018-12-22T14:25:24.436Z,93.82
2018-12-22T14:27:53.748Z,92.68
2018-12-22T14:30:23.025Z,92.37
2018-12-22T14:32:52.406Z,93.02
2018-12-22T14:35:35.010Z,93.15
2018-12-22T14:38:04.280Z,93.04
2018-12-22T14:40:33.662Z,92.91
2018-12-22T14:43:02.948Z,92.59
2018-12-22T14:45:32.257Z,92.57
2018-12-22T14:48:01.593Z,92.36
2018-12-22T14:50:30.862Z,92.32
2018-12-22T14:53:00.180Z,92.54
2018-12-22T14:55:31.543Z,92.08
2018-12-22T14:58:11.483Z,91.64
2018-12-22T15:00:40.802Z,91.79
2018-12-22T15:03:10.127Z,91.88
2018-12-22T15:05:42.336Z,91.98
2018-12-22T15:08:08.804Z,91.84
2018-12-22T15:10:38.092Z,91.16
2018-12-22T15:13:07.436Z,91.65
2018-12-22T15:15:36.708Z,91.84
2018-12-22T15:18:05.968Z,91.73
2018-12-22T15:20:35.290Z,91.46
2018-12-22T15:23:07.422Z,91.49
2018-12-22T15:25:36.744Z,91.21
2018-12-22T15:28:06.006Z,91.27
2018-12-22T15:30:35.290Z,91.18
2018-12-22T15:33:04.714Z,91.05
2018-12-22T15:35:34.024Z,91.57
2018-12-22T15:38:03.336Z,91.67
2018-12-22T15:40:32.594Z,91.26
2018-12-22T15:43:02.037Z,90.79
2018-12-22T15:45:31.395Z,89.75
2018-12-22T15:48:00.733Z,89.62
2018-12-22T15:50:32.074Z,89.62
2018-12-22T15:53:01.410Z,89.96
2018-12-22T15:55:30.679Z,87.17
2018-12-22T15:57:59.941Z,87.43
2018-12-22T16:00:29.232Z,87.76
2018-12-22T16:02:58.559Z,87.17
2018-12-22T16:05:27.896Z,86.67
2018-12-22T16:07:57.156Z,85.90
2018-12-22T16:10:26.541Z,85.32
2018-12-22T16:12:55.867Z,85.58
2018-12-22T16:15:25.748Z,85.46
2018-12-22T16:17:54.960Z,85.03
2018-12-22T16:20:24.298Z,85.03
2018-12-22T16:23:03.806Z,84.91
2018-12-22T16:25:33.232Z,84.74
2018-12-22T16:28:27.070Z,84.92
2018-12-22T16:30:58.065Z,84.49
2018-12-22T16:33:27.367Z,85.05
2018-12-22T16:35:56.899Z,85.46
2018-12-22T16:38:26.276Z,85.75
2018-12-22T16:40:55.588Z,85.92
2018-12-22T16:43:24.902Z,86.26
2018-12-22T16:45:54.166Z,86.49
2018-12-22T16:48:24.776Z,86.59
2018-12-22T16:50:54.091Z,86.81
2018-12-22T16:53:23.408Z,87.32
2018-12-22T16:55:52.788Z,87.52
2018-12-22T16:58:36.965Z,87.43
2018-12-22T17:01:19.660Z,87.60
2018-12-22T17:03:49.051Z,87.50
2018-12-22T17:06:18.296Z,87.11
2018-12-22T17:08:47.604Z,86.79
2018-12-22T17:11:16.886Z,86.79
2018-12-22T17:13:47.295Z,86.86
2018-12-22T17:16:17.455Z,87.07
2018-12-22T17:18:46.820Z,86.11
2018-12-22T17:21:32.275Z,85.91
2018-12-22T17:24:44.382Z,85.59
2018-12-22T17:27:13.652Z,85.29
2018-12-22T17:29:42.986Z,85.16
2018-12-22T17:32:12.251Z,85.12
2018-12-22T17:34:41.538Z,85.12
2018-12-22T17:37:11.165Z,85.01
2018-12-22T17:39:40.839Z,85.26
2018-12-22T17:42:10.304Z,84.21
2018-12-22T17:44:39.595Z,84.58
2018-12-22T17:47:08.889Z,84.11
2018-12-22T17:49:38.211Z,84.81
2018-12-22T17:52:07.625Z,83.78
2018-12-22T17:54:36.895Z,83.38
2018-12-22T17:57:06.211Z,83.36
2018-12-22T17:59:35.483Z,83.79
2018-12-22T18:02:04.825Z,82.75
2018-12-22T18:04:34.225Z,83.22
2018-12-22T18:07:03.531Z,82.59
2018-12-22T18:09:32.832Z,82.98
2018-12-22T18:12:02.141Z,82.85
2018-12-22T18:14:31.425Z,82.41
2018-12-22T18:17:00.709Z,83.01
2018-12-22T18:19:30.066Z,82.55
2018-12-22T18:21:59.351Z,82.72
2018-12-22T18:24:28.590Z,82.74
2018-12-22T18:26:57.906Z,82.76
2018-12-22T18:29:27.145Z,83.33
2018-12-22T18:31:56.519Z,83.51
2018-12-22T18:34:25.814Z,83.51
2018-12-22T18:36:55.867Z,83.66
2018-12-22T18:39:25.168Z,83.85
2018-12-22T18:41:54.537Z,83.84
2018-12-22T18:44:23.803Z,83.89
2018-12-22T18:46:53.046Z,84.31
2018-12-22T18:49:22.332Z,84.40
2018-12-22T18:51:51.614Z,84.55
2018-12-22T18:54:20.886Z,84.52
2018-12-22T18:56:50.231Z,84.64
2018-12-22T18:59:20.605Z,85.20
2018-12-22T19:01:49.975Z,84.98
2018-12-22T19:04:19.277Z,85.51
2018-12-22T19:06:48.569Z,85.87
2018-12-22T19:09:26.691Z,86.25
2018-12-22T19:11:56.077Z,86.18
2018-12-22T19:14:25.341Z,86.11
2018-12-22T19:16:54.621Z,86.22
2018-12-22T19:19:24.007Z,86.20
2018-12-22T19:21:53.373Z,86.13
2018-12-22T19:24:22.695Z,85.84
2018-12-22T19:26:52.100Z,85.62
2018-12-22T19:29:21.421Z,85.59
2018-12-22T19:31:50.734Z,85.32
2018-12-22T19:34:20.084Z,85.39
2018-12-22T19:36:49.329Z,85.17
2018-12-22T19:39:18.657Z,84.84
2018-12-22T19:41:48.013Z,84.68
2018-12-22T19:44:17.319Z,84.73
2018-12-22T19:46:46.755Z,84.59
2018-12-22T19:49:16.083Z,84.20
2018-12-22T19:51:45.415Z,84.31
2018-12-22T19:54:14.663Z,84.10
2018-12-22T19:56:43.956Z,84.24
2018-12-22T19:59:13.219Z,83.74
2018-12-22T20:01:42.543Z,83.97
2018-12-22T20:04:11.807Z,84.06
2018-12-22T20:06:41.115Z,84.09
2018-12-22T20:09:10.361Z,84.03
2018-12-22T20:11:39.685Z,84.10
2018-12-22T20:14:08.974Z,84.10
2018-12-22T20:16:38.332Z,84.44
2018-12-22T20:19:07.603Z,84.21
2018-12-22T20:21:37.398Z,83.75
2018-12-22T20:24:06.707Z,83.73
2018-12-22T20:26:36.030Z,83.79
2018-12-22T20:29:05.310Z,84.02
2018-12-22T20:31:34.650Z,83.51
2018-12-22T20:34:10.963Z,83.82
2018-12-22T20:36:33.216Z,83.88
2018-12-22T20:39:02.533Z,83.70
2018-12-22T20:41:31.971Z,83.37
2018-12-22T20:44:01.237Z,83.20
2018-12-22T20:46:30.515Z,83.08
2018-12-22T20:48:59.784Z,83.36
2018-12-22T20:51:29.054Z,83.04
2018-12-22T20:54:00.162Z,82.63
2018-12-22T20:56:29.490Z,82.89
2018-12-22T20:58:58.794Z,83.06
2018-12-22T21:01:28.045Z,82.78
2018-12-22T21:03:57.364Z,82.66
2018-12-22T21:06:33.060Z,82.72
2018-12-22T21:09:02.359Z,82.76
2018-12-22T21:11:31.757Z,82.56
2018-12-22T21:14:01.101Z,82.40
2018-12-22T21:16:30.454Z,81.96
2018-12-22T21:18:59.710Z,81.96
2018-12-22T21:21:28.970Z,81.83
2018-12-22T21:23:58.258Z,81.88
2018-12-22T21:26:27.501Z,81.84
2018-12-22T21:28:56.846Z,81.74
2018-12-22T21:31:26.125Z,81.81
2018-12-22T21:33:55.483Z,82.09
2018-12-22T21:36:24.748Z,81.77
2018-12-22T21:38:54.103Z,81.57
2018-12-22T21:41:23.373Z,81.90
2018-12-22T21:43:52.647Z,81.68
2018-12-22T21:46:21.955Z,81.43
2018-12-22T21:48:51.221Z,81.75
2018-12-22T21:51:20.551Z,81.23
2018-12-22T21:53:49.851Z,81.61
2018-12-22T21:56:19.109Z,82.00
2018-12-22T21:58:48.579Z,81.98
2018-12-22T22:01:17.875Z,82.28
2018-12-22T22:03:47.124Z,82.61
2018-12-22T22:06:16.497Z,82.86
2018-12-22T22:08:45.779Z,82.94
2018-12-22T22:11:15.089Z,83.06
2018-12-22T22:13:44.363Z,83.20
2018-12-22T22:16:13.671Z,83.38
2018-12-22T22:18:42.929Z,83.53
2018-12-22T22:21:12.310Z,83.46
2018-12-22T22:23:41.611Z,83.74
2018-12-22T22:26:10.920Z,83.88
2018-12-22T22:28:40.242Z,84.09
2018-12-22T22:31:09.556Z,84.19
2018-12-22T22:33:38.834Z,84.42
2018-12-22T22:36:08.203Z,84.76
2018-12-22T22:38:37.474Z,84.95
2018-12-22T22:41:06.779Z,84.95
2018-12-22T22:43:36.006Z,84.91
2018-12-22T22:46:05.272Z,85.20
2018-12-22T22:48:34.531Z,85.21
2018-12-22T22:51:03.835Z,85.09
2018-12-22T22:53:33.171Z,85.17
2018-12-22T22:56:14.735Z,85.42
2018-12-22T22:58:44.019Z,85.65
2018-12-22T23:01:13.351Z,85.24
2018-12-22T23:03:42.701Z,85.54
2018-12-22T23:06:12.003Z,85.59
2018-12-22T23:08:41.425Z,85.53
2018-12-22T23:11:10.779Z,85.63
2018-12-22T23:13:41.209Z,85.94
2018-12-22T23:16:13.849Z,86.09
2018-12-22T23:18:43.811Z,85.87
2018-12-22T23:21:13.237Z,85.85
2018-12-22T23:23:43.919Z,86.03
2018-12-22T23:26:14.100Z,86.15
2018-12-22T23:28:44.894Z,85.79
2018-12-22T23:31:15.727Z,86.15
2018-12-22T23:33:47.219Z,86.17
2018-12-22T23:36:18.879Z,86.32
2018-12-22T23:38:50.936Z,86.54
2018-12-22T23:41:21.531Z,86.50
2018-12-22T23:43:52.201Z,86.29
2018-12-22T23:46:22.972Z,86.36
2018-12-22T23:48:53.669Z,86.68
2018-12-22T23:51:23.592Z,86.91
2018-12-22T23:53:53.432Z,86.99
2018-12-22T23:56:23.257Z,87.13
2018-12-22T23:58:56.015Z,86.98
